Terminal Aerodrome Forecast
Issued by NWS Portland, ME

Home | Current Version | Previous Version | Text Only | Print | Product List | Glossary On
Versions: 1 2 3 4 5 6 7 8 9 10 11 12 13 14 15 16 17
789
FTUS41 KGYX 222320
TAFPWM
TAF
KPWM 222320Z 2300/2324 34008G19KT P6SM SKC
     FM230100 34005KT P6SM SKC
     FM232000 18010KT P6SM SKC=

USA.gov is the U.S. government's official web portal to all federal, state and local government web resources and services.